createdAt,value
2023-05-06T00:00:33.203Z,39.15
2023-05-06T00:03:02.737Z,41.60
2023-05-06T00:05:29.286Z,43.13
2023-05-06T00:07:56.046Z,43.05
2023-05-06T00:10:25.842Z,41.15
2023-05-06T00:12:59.418Z,42.13
2023-05-06T00:15:31.499Z,44.90
2023-05-06T00:17:58.730Z,45.03
2023-05-06T00:20:25.424Z,45.47
2023-05-06T00:22:51.920Z,43.95
2023-05-06T00:25:18.757Z,46.20
2023-05-06T00:27:45.392Z,44.97
2023-05-06T00:30:12.408Z,41.88
2023-05-06T00:32:42.160Z,40.45
2023-05-06T00:35:12.052Z,36.50
2023-05-06T00:37:41.816Z,36.42
2023-05-06T00:40:11.511Z,34.97
2023-05-06T00:42:37.958Z,35.63
2023-05-06T00:45:04.945Z,35.78
2023-05-06T00:47:31.518Z,37.40
2023-05-06T00:49:58.308Z,37.85
2023-05-06T00:52:27.737Z,37.90
2023-05-06T00:54:55.220Z,38.63
2023-05-06T00:57:24.697Z,37.40
2023-05-06T00:59:51.249Z,38.45
2023-05-06T01:02:17.756Z,37.85
2023-05-06T01:04:44.565Z,36.10
2023-05-06T01:07:20.006Z,37.58
2023-05-06T01:10:34.713Z,34.17
2023-05-06T01:13:15.043Z,32.67
2023-05-06T01:15:45.758Z,34.63
2023-05-06T01:18:17.029Z,33.58
2023-05-06T01:20:49.905Z,32.08
2023-05-06T01:23:17.154Z,32.60
2023-05-06T01:25:46.643Z,35.40
2023-05-06T01:28:13.757Z,34.83
2023-05-06T01:30:52.496Z,31.45
2023-05-06T01:33:37.605Z,31.15
2023-05-06T01:36:15.926Z,31.77
2023-05-06T01:38:57.915Z,30.20
2023-05-06T01:41:25.522Z,29.13
2023-05-06T01:43:57.560Z,29.88
2023-05-06T01:46:29.628Z,26.98
2023-05-06T01:49:02.328Z,25.10
2023-05-06T01:51:28.897Z,26.40
2023-05-06T01:53:55.453Z,23.80
2023-05-06T01:56:24.445Z,20.77
2023-05-06T01:58:51.088Z,19.20
2023-05-06T02:01:17.747Z,18.08
2023-05-06T02:03:47.473Z,18.88
2023-05-06T02:06:14.056Z,16.77
2023-05-06T02:08:41.132Z,16.63
2023-05-06T02:11:16.933Z,16.73
2023-05-06T02:13:43.451Z,16.42
2023-05-06T02:16:10.253Z,16.77
2023-05-06T02:18:36.912Z,16.15
2023-05-06T02:21:03.490Z,14.68
2023-05-06T02:23:30.100Z,15.02
2023-05-06T02:25:58.323Z,13.63
2023-05-06T02:28:25.422Z,12.60
2023-05-06T02:30:55.932Z,11.20
2023-05-06T02:33:22.791Z,12.10
2023-05-06T02:35:49.862Z,11.20
2023-05-06T02:38:16.372Z,11.50
2023-05-06T02:40:42.930Z,12.52
2023-05-06T02:43:09.399Z,10.48
2023-05-06T02:45:35.982Z,10.98
2023-05-06T02:48:02.528Z,11.05
2023-05-06T02:50:29.102Z,10.88
2023-05-06T02:52:55.693Z,10.95
2023-05-06T02:55:22.213Z,9.80
2023-05-06T02:57:48.686Z,9.90
2023-05-06T03:00:16.388Z,9.30
2023-05-06T03:02:42.992Z,9.30
2023-05-06T03:05:10.119Z,9.57
2023-05-06T03:07:38.512Z,9.05
2023-05-06T03:10:05.430Z,9.27
2023-05-06T03:12:31.891Z,9.73
2023-05-06T03:14:58.440Z,10.48
2023-05-06T03:17:24.973Z,10.77
2023-05-06T03:19:52.046Z,11.07
2023-05-06T03:22:18.556Z,11.65
2023-05-06T03:24:45.917Z,11.93
2023-05-06T03:27:12.408Z,13.02
2023-05-06T03:29:38.908Z,12.43
2023-05-06T03:32:05.737Z,13.45
2023-05-06T03:34:32.430Z,12.70
2023-05-06T03:36:58.910Z,13.18
2023-05-06T03:39:25.420Z,15.05
2023-05-06T03:41:51.931Z,15.20
2023-05-06T03:44:18.441Z,13.30
2023-05-06T03:46:45.027Z,15.00
2023-05-06T03:49:11.532Z,15.57
2023-05-06T03:51:38.067Z,15.25
2023-05-06T03:54:04.693Z,15.38
2023-05-06T03:56:31.224Z,15.48
2023-05-06T03:58:57.860Z,15.45
2023-05-06T04:01:24.401Z,16.42
2023-05-06T04:03:56.087Z,15.18
2023-05-06T04:06:22.972Z,15.70
2023-05-06T04:08:49.492Z,16.10
2023-05-06T04:11:16.013Z,15.90
2023-05-06T04:13:42.539Z,15.60
2023-05-06T04:16:10.068Z,16.67
2023-05-06T04:18:37.515Z,16.55
2023-05-06T04:21:04.125Z,15.43
2023-05-06T04:23:30.703Z,15.73
2023-05-06T04:25:57.903Z,15.77
2023-05-06T04:28:24.637Z,16.48
2023-05-06T04:30:51.595Z,15.57
2023-05-06T04:33:18.077Z,16.63
2023-05-06T04:35:51.124Z,15.48
2023-05-06T04:38:17.934Z,17.08
2023-05-06T04:40:44.535Z,16.73
2023-05-06T04:43:11.519Z,16.23
2023-05-06T04:45:40.138Z,15.85
2023-05-06T04:48:06.981Z,15.98
2023-05-06T04:50:33.482Z,16.00
2023-05-06T04:52:59.915Z,15.15
2023-05-06T04:55:26.486Z,15.95
2023-05-06T04:57:52.950Z,15.65
2023-05-06T05:00:19.681Z,16.33
2023-05-06T05:02:46.891Z,16.33
2023-05-06T05:05:14.064Z,16.92
2023-05-06T05:07:40.564Z,15.23
2023-05-06T05:10:09.120Z,16.65
2023-05-06T05:12:35.705Z,15.95
2023-05-06T05:15:02.439Z,14.27
2023-05-06T05:17:29.282Z,14.65
2023-05-06T05:19:55.745Z,14.60
2023-05-06T05:22:22.253Z,15.07
2023-05-06T05:24:48.702Z,14.90
2023-05-06T05:27:15.960Z,12.48
2023-05-06T05:29:42.445Z,12.98
2023-05-06T05:32:08.916Z,13.07
2023-05-06T05:34:35.560Z,13.20
2023-05-06T05:37:02.075Z,11.77
2023-05-06T05:39:28.542Z,11.98
2023-05-06T05:41:55.105Z,11.93
2023-05-06T05:44:21.790Z,12.02
2023-05-06T05:46:48.635Z,12.27
2023-05-06T05:49:15.152Z,11.75
2023-05-06T05:51:41.654Z,11.93
2023-05-06T05:54:08.819Z,12.13
2023-05-06T05:56:35.363Z,10.95
2023-05-06T05:59:01.879Z,10.63
2023-05-06T06:01:28.477Z,10.88
2023-05-06T06:03:56.411Z,10.32
2023-05-06T06:06:24.296Z,10.95
2023-05-06T06:08:50.821Z,10.82
2023-05-06T06:11:17.334Z,10.82
2023-05-06T06:13:43.845Z,10.73
2023-05-06T06:16:11.110Z,9.20
2023-05-06T06:18:37.715Z,9.60
2023-05-06T06:21:04.345Z,9.70
2023-05-06T06:23:30.934Z,9.07
2023-05-06T06:25:57.427Z,7.93
2023-05-06T06:28:23.947Z,8.38
2023-05-06T06:30:50.495Z,7.88
2023-05-06T06:33:17.020Z,7.75
2023-05-06T06:35:43.494Z,6.95
2023-05-06T06:38:10.000Z,6.78
2023-05-06T06:40:42.694Z,7.03
2023-05-06T06:43:14.112Z,6.45
2023-05-06T06:45:40.604Z,6.20
2023-05-06T06:48:07.239Z,7.10
2023-05-06T06:50:33.691Z,6.80
2023-05-06T06:53:00.238Z,6.85
2023-05-06T06:55:26.852Z,7.63
2023-05-06T06:57:56.329Z,6.90
2023-05-06T07:00:26.209Z,7.10
2023-05-06T07:02:53.906Z,6.97
2023-05-06T07:05:20.572Z,7.20
2023-05-06T07:07:47.092Z,6.70
2023-05-06T07:10:13.686Z,6.10
2023-05-06T07:12:43.068Z,6.28
2023-05-06T07:15:10.099Z,6.72
2023-05-06T07:17:40.128Z,7.07
2023-05-06T07:20:07.310Z,6.68
2023-05-06T07:22:34.096Z,6.55
2023-05-06T07:25:00.616Z,7.00
2023-05-06T07:27:30.231Z,6.93
2023-05-06T07:29:56.887Z,7.63
2023-05-06T07:32:23.440Z,7.32
2023-05-06T07:34:50.000Z,7.97
2023-05-06T07:37:16.464Z,8.13
2023-05-06T07:39:43.218Z,7.50
2023-05-06T07:42:12.903Z,7.70
2023-05-06T07:44:40.000Z,7.50
2023-05-06T07:47:07.091Z,7.43
2023-05-06T07:49:35.199Z,7.28
2023-05-06T07:52:02.016Z,7.80
2023-05-06T07:54:28.926Z,8.05
2023-05-06T07:56:55.671Z,8.10
2023-05-06T07:59:24.738Z,8.55
2023-05-06T08:01:51.305Z,8.52
2023-05-06T08:04:17.877Z,8.43
2023-05-06T08:06:46.918Z,8.02
2023-05-06T08:09:22.010Z,7.75
2023-05-06T08:11:53.072Z,7.68
2023-05-06T08:14:19.642Z,8.13
2023-05-06T08:16:46.420Z,7.55
2023-05-06T08:19:13.026Z,8.82
2023-05-06T08:21:39.475Z,8.13
2023-05-06T08:24:06.146Z,8.90
2023-05-06T08:26:34.467Z,8.00
2023-05-06T08:29:07.157Z,8.30
2023-05-06T08:31:35.825Z,7.90
2023-05-06T08:34:02.354Z,7.88
2023-05-06T08:36:29.002Z,8.20
2023-05-06T08:38:55.572Z,7.93
2023-05-06T08:41:26.518Z,7.72
2023-05-06T08:43:55.009Z,7.93
2023-05-06T08:46:22.730Z,8.18
2023-05-06T08:48:49.252Z,7.93
2023-05-06T08:51:16.321Z,8.38
2023-05-06T08:53:48.387Z,8.38
2023-05-06T08:56:16.311Z,8.25
2023-05-06T08:58:48.288Z,8.20
2023-05-06T09:01:16.073Z,8.48
2023-05-06T09:03:43.899Z,8.23
2023-05-06T09:06:10.468Z,7.65
2023-05-06T09:08:37.489Z,7.97
2023-05-06T09:11:24.540Z,8.05
2023-05-06T09:13:51.535Z,7.55
2023-05-06T09:16:32.701Z,7.85
2023-05-06T09:19:01.084Z,7.80
2023-05-06T09:21:38.801Z,7.90
2023-05-06T09:24:06.725Z,7.88
2023-05-06T09:26:35.596Z,7.50
2023-05-06T09:29:02.971Z,7.28
2023-05-06T09:31:30.188Z,7.60
2023-05-06T09:33:59.458Z,7.72
2023-05-06T09:36:27.680Z,7.13
2023-05-06T09:38:55.782Z,7.80
2023-05-06T09:41:27.461Z,8.77
2023-05-06T09:43:55.609Z,7.43
2023-05-06T09:46:23.683Z,7.43
2023-05-06T09:48:56.375Z,7.35
2023-05-06T09:51:28.238Z,7.45
2023-05-06T09:56:26.343Z,8.05
2023-05-06T09:58:56.875Z,7.90
2023-05-06T10:01:35.508Z,7.43
2023-05-06T10:04:10.138Z,5.85
2023-05-06T10:06:44.690Z,6.82
2023-05-06T10:09:11.431Z,7.22
2023-05-06T10:11:42.195Z,8.07
2023-05-06T10:14:10.145Z,6.93
2023-05-06T10:16:40.409Z,6.63
2023-05-06T10:19:09.263Z,8.13
2023-05-06T10:21:40.505Z,7.40
2023-05-06T10:24:11.374Z,7.65
2023-05-06T10:26:38.800Z,7.20
2023-05-06T10:29:09.912Z,6.22
2023-05-06T10:31:42.318Z,6.40
2023-05-06T10:34:09.469Z,6.13
2023-05-06T10:36:39.061Z,5.60
2023-05-06T10:39:07.319Z,5.20
2023-05-06T10:41:37.131Z,5.68
2023-05-06T10:44:06.775Z,6.53
2023-05-06T10:46:57.356Z,5.50
2023-05-06T10:49:25.509Z,4.60
2023-05-06T10:52:14.297Z,4.65
2023-05-06T10:54:51.382Z,4.22
2023-05-06T10:57:26.662Z,5.63
2023-05-06T10:59:55.473Z,5.18
2023-05-06T11:02:24.006Z,5.70
2023-05-06T11:04:52.945Z,6.70
2023-05-06T11:07:24.064Z,6.00
2023-05-06T11:10:07.268Z,6.38
2023-05-06T11:12:49.360Z,6.13
2023-05-06T11:15:28.931Z,5.18
2023-05-06T11:17:56.612Z,4.95
2023-05-06T11:20:28.810Z,5.05
2023-05-06T11:22:55.814Z,5.70
2023-05-06T11:25:51.702Z,5.60
2023-05-06T11:28:18.191Z,5.57
2023-05-06T11:30:54.491Z,6.10
2023-05-06T11:33:24.101Z,6.05
2023-05-06T11:35:53.380Z,5.30
2023-05-06T11:38:19.875Z,5.38
2023-05-06T11:40:46.585Z,5.60
2023-05-06T11:43:14.223Z,5.95
2023-05-06T11:45:45.429Z,5.68
2023-05-06T11:48:13.871Z,6.50
2023-05-06T11:50:47.758Z,6.70
2023-05-06T11:53:18.927Z,6.18
2023-05-06T11:55:47.167Z,5.78
2023-05-06T11:58:19.945Z,6.03
2023-05-06T12:00:53.751Z,5.43
2023-05-06T12:03:21.504Z,5.00
2023-05-06T12:05:49.917Z,5.35
2023-05-06T12:08:27.904Z,4.90
2023-05-06T12:10:58.823Z,4.78
2023-05-06T12:13:26.706Z,5.15
2023-05-06T12:15:55.323Z,4.75
2023-05-06T12:18:23.736Z,4.47
2023-05-06T12:20:50.389Z,3.45
2023-05-06T12:23:17.088Z,3.47
2023-05-06T12:25:44.760Z,3.80
2023-05-06T12:28:19.815Z,3.67
2023-05-06T12:30:46.989Z,3.45
2023-05-06T12:33:13.773Z,3.00
2023-05-06T12:35:41.210Z,3.30
2023-05-06T12:38:16.369Z,3.33
2023-05-06T12:40:44.456Z,3.85
2023-05-06T12:43:12.138Z,3.25
2023-05-06T12:45:40.337Z,3.75
2023-05-06T12:48:07.063Z,3.22
2023-05-06T12:50:44.372Z,3.20
2023-05-06T12:53:15.731Z,3.00
2023-05-06T12:55:42.428Z,3.35
2023-05-06T12:58:19.216Z,3.00
2023-05-06T13:00:45.972Z,2.55
2023-05-06T13:03:15.621Z,2.60
2023-05-06T13:05:42.134Z,2.88
2023-05-06T13:08:08.636Z,2.60
2023-05-06T13:10:35.085Z,2.83
2023-05-06T13:13:01.616Z,2.28
2023-05-06T13:15:28.180Z,2.45
2023-05-06T13:17:54.800Z,2.58
2023-05-06T13:20:21.823Z,2.50
2023-05-06T13:22:54.333Z,2.53
2023-05-06T13:25:21.829Z,2.63
2023-05-06T13:27:48.346Z,2.95
2023-05-06T13:30:14.974Z,2.97
2023-05-06T13:32:41.510Z,2.05
2023-05-06T13:35:09.013Z,2.10
2023-05-06T13:37:39.012Z,2.00
2023-05-06T13:40:06.389Z,4.30
2023-05-06T13:42:33.071Z,4.85
2023-05-06T13:44:59.589Z,4.45
2023-05-06T13:47:26.735Z,4.47
2023-05-06T13:49:53.233Z,4.10
2023-05-06T13:52:19.665Z,4.03
2023-05-06T13:54:47.795Z,4.28
2023-05-06T13:57:14.240Z,5.22
2023-05-06T13:59:40.789Z,5.72
2023-05-06T14:02:09.635Z,7.68
2023-05-06T14:04:36.525Z,8.35
2023-05-06T14:07:03.136Z,8.50
2023-05-06T14:09:29.583Z,8.80
2023-05-06T14:11:56.042Z,8.65
2023-05-06T14:14:22.505Z,8.35
2023-05-06T14:16:49.022Z,8.82
2023-05-06T14:19:15.454Z,9.52
2023-05-06T14:21:41.944Z,9.40
2023-05-06T14:24:10.114Z,9.60
2023-05-06T14:26:36.609Z,8.82
2023-05-06T14:29:03.660Z,8.18
2023-05-06T14:31:30.279Z,8.93
2023-05-06T14:33:57.349Z,8.60
2023-05-06T14:36:23.799Z,8.82
2023-05-06T14:38:50.422Z,9.15
2023-05-06T14:41:16.877Z,9.50
2023-05-06T14:43:43.349Z,9.70
2023-05-06T14:46:11.148Z,8.32
2023-05-06T14:48:37.785Z,8.93
2023-05-06T14:51:04.981Z,7.25
2023-05-06T14:53:31.477Z,6.68
2023-05-06T14:55:57.927Z,9.35
2023-05-06T14:58:24.470Z,7.80
2023-05-06T15:00:51.008Z,7.15
2023-05-06T15:03:17.492Z,7.72
2023-05-06T15:05:44.018Z,7.75
2023-05-06T15:08:10.546Z,7.75
2023-05-06T15:10:37.062Z,7.57
2023-05-06T15:13:03.649Z,7.18
2023-05-06T15:15:30.330Z,8.20
2023-05-06T15:17:56.823Z,7.43
2023-05-06T15:20:23.507Z,8.35
2023-05-06T15:22:50.126Z,8.30
2023-05-06T15:25:30.296Z,8.85
2023-05-06T15:28:01.179Z,8.48
2023-05-06T15:30:27.656Z,9.02
2023-05-06T15:32:54.160Z,8.50
2023-05-06T15:35:20.963Z,8.20
2023-05-06T15:37:47.483Z,8.30
2023-05-06T15:40:14.038Z,8.15
2023-05-06T15:42:40.971Z,8.52
2023-05-06T15:45:08.066Z,7.57
2023-05-06T15:47:34.642Z,7.70
2023-05-06T15:50:01.584Z,8.13
2023-05-06T15:52:28.564Z,7.75
2023-05-06T15:54:59.495Z,7.65
2023-05-06T15:57:26.459Z,7.82
2023-05-06T15:59:52.973Z,7.45
2023-05-06T16:04:49.196Z,7.43
2023-05-06T16:07:16.638Z,6.90
2023-05-06T16:09:43.118Z,7.68
2023-05-06T16:12:10.020Z,7.07
2023-05-06T16:14:36.658Z,7.28
2023-05-06T16:17:03.156Z,7.22
2023-05-06T16:19:32.089Z,6.82
2023-05-06T16:21:58.695Z,7.22
2023-05-06T16:24:25.293Z,6.88
2023-05-06T16:26:51.868Z,7.43
2023-05-06T16:29:20.644Z,7.13
2023-05-06T16:31:48.475Z,8.23
2023-05-06T16:34:15.434Z,9.52
2023-05-06T16:36:41.963Z,10.98
2023-05-06T16:39:08.710Z,10.40
2023-05-06T16:41:35.264Z,11.52
2023-05-06T16:44:01.981Z,10.82
2023-05-06T16:46:28.943Z,12.82
2023-05-06T16:48:55.870Z,17.30
2023-05-06T16:51:25.127Z,17.48
2023-05-06T16:53:51.629Z,18.55
2023-05-06T16:56:18.114Z,17.92
2023-05-06T16:58:44.615Z,18.73
2023-05-06T17:01:11.762Z,18.98
2023-05-06T17:03:38.652Z,19.42
2023-05-06T17:06:05.669Z,19.92
2023-05-06T17:08:36.006Z,19.45
2023-05-06T17:11:08.821Z,19.37
2023-05-06T17:13:35.560Z,19.73
2023-05-06T17:16:02.089Z,19.55
2023-05-06T17:18:28.670Z,18.95
2023-05-06T17:20:56.927Z,19.75
2023-05-06T17:23:23.973Z,19.45
2023-05-06T17:25:51.306Z,19.85
2023-05-06T17:28:18.927Z,20.48
2023-05-06T17:30:45.858Z,19.92
2023-05-06T17:33:12.665Z,20.90
2023-05-06T17:35:39.183Z,20.30
2023-05-06T17:38:05.787Z,19.10
2023-05-06T17:40:32.251Z,19.58
2023-05-06T17:42:58.769Z,19.50
2023-05-06T17:45:26.718Z,19.90
2023-05-06T17:47:53.452Z,20.23
2023-05-06T17:50:20.051Z,19.88
2023-05-06T17:52:48.900Z,20.20
2023-05-06T17:55:16.977Z,20.63
2023-05-06T17:57:44.084Z,19.67
2023-05-06T18:00:11.422Z,19.52
2023-05-06T18:02:38.119Z,20.88
2023-05-06T18:05:04.990Z,20.95
2023-05-06T18:07:31.517Z,21.23
2023-05-06T18:09:58.262Z,21.17
2023-05-06T18:12:24.805Z,21.70
2023-05-06T18:14:51.291Z,20.23
2023-05-06T18:17:17.828Z,20.95
2023-05-06T18:19:44.327Z,20.10
2023-05-06T18:22:10.808Z,21.25
2023-05-06T18:24:38.154Z,20.60
2023-05-06T18:27:04.754Z,21.20
2023-05-06T18:29:33.083Z,20.40
2023-05-06T18:32:00.307Z,20.70
2023-05-06T18:34:26.964Z,20.75
2023-05-06T18:36:57.953Z,20.23
2023-05-06T18:39:24.541Z,20.53
2023-05-06T18:41:51.029Z,20.92
2023-05-06T18:44:17.467Z,20.80
2023-05-06T18:46:43.958Z,20.83
2023-05-06T18:49:10.786Z,20.98
2023-05-06T18:51:37.309Z,21.02
2023-05-06T18:54:03.780Z,20.30
2023-05-06T18:56:30.265Z,21.83
2023-05-06T18:58:57.228Z,21.40
2023-05-06T19:01:25.045Z,21.92
2023-05-06T19:03:54.621Z,22.52
2023-05-06T19:06:21.123Z,22.75
2023-05-06T19:08:47.653Z,22.95
2023-05-06T19:11:15.985Z,23.65
2023-05-06T19:13:43.848Z,24.58
2023-05-06T19:16:13.898Z,24.13
2023-05-06T19:18:40.706Z,25.45
2023-05-06T19:21:10.110Z,24.60
2023-05-06T19:23:36.871Z,24.73
2023-05-06T19:26:06.382Z,25.30
2023-05-06T19:28:33.592Z,23.52
2023-05-06T19:31:00.087Z,25.10
2023-05-06T19:33:26.932Z,23.95
2023-05-06T19:35:53.377Z,23.27
2023-05-06T19:38:19.926Z,24.08
2023-05-06T19:40:46.420Z,24.50
2023-05-06T19:43:12.872Z,25.20
2023-05-06T19:45:39.844Z,25.67
2023-05-06T19:48:08.505Z,25.80
2023-05-06T19:50:35.121Z,27.25
2023-05-06T19:53:01.588Z,28.10
2023-05-06T19:55:28.086Z,28.67
2023-05-06T19:57:57.337Z,28.10
2023-05-06T20:00:27.241Z,28.77
2023-05-06T20:02:58.629Z,29.27
2023-05-06T20:05:30.819Z,29.80
2023-05-06T20:07:59.675Z,29.08
2023-05-06T20:10:27.355Z,28.55
2023-05-06T20:12:56.069Z,29.23
2023-05-06T20:15:24.195Z,29.58
2023-05-06T20:17:50.748Z,28.40
2023-05-06T20:20:17.576Z,28.95
2023-05-06T20:22:44.135Z,28.95
2023-05-06T20:25:13.161Z,27.70
2023-05-06T20:27:40.032Z,28.63
2023-05-06T20:30:08.126Z,27.27
2023-05-06T20:32:35.108Z,27.10
2023-05-06T20:35:01.879Z,29.10
2023-05-06T20:37:29.363Z,28.20
2023-05-06T20:39:56.597Z,29.73
2023-05-06T20:42:24.394Z,28.05
2023-05-06T20:44:51.498Z,28.63
2023-05-06T20:47:18.204Z,28.35
2023-05-06T20:49:45.048Z,26.85
2023-05-06T20:52:14.466Z,26.33
2023-05-06T20:54:42.695Z,25.52
2023-05-06T20:57:09.902Z,24.80
2023-05-06T20:59:36.584Z,26.42
2023-05-06T21:02:03.950Z,25.27
2023-05-06T21:04:31.007Z,26.13
2023-05-06T21:06:57.551Z,26.75
2023-05-06T21:09:26.421Z,25.15
2023-05-06T21:11:52.968Z,25.40
2023-05-06T21:14:21.840Z,26.20
2023-05-06T21:16:48.385Z,26.75
2023-05-06T21:19:14.811Z,26.23
2023-05-06T21:21:41.412Z,27.55
2023-05-06T21:24:07.920Z,26.98
2023-05-06T21:26:34.515Z,26.27
2023-05-06T21:29:00.958Z,26.15
2023-05-06T21:31:27.754Z,26.25
2023-05-06T21:33:55.656Z,26.98
2023-05-06T21:36:22.187Z,26.27
2023-05-06T21:39:00.048Z,25.08
2023-05-06T21:41:26.884Z,24.17
2023-05-06T21:43:53.552Z,26.25
2023-05-06T21:46:20.125Z,24.35
2023-05-06T21:48:46.603Z,27.08
2023-05-06T21:51:13.129Z,25.45
2023-05-06T21:53:39.578Z,25.48
2023-05-06T21:56:06.334Z,25.13
2023-05-06T21:58:32.818Z,24.75
2023-05-06T22:00:59.313Z,25.70
2023-05-06T22:03:27.514Z,26.33
2023-05-06T22:05:54.092Z,27.60
2023-05-06T22:08:20.538Z,26.67
2023-05-06T22:10:49.160Z,27.20
2023-05-06T22:13:30.173Z,26.23
2023-05-06T22:15:56.986Z,25.67
2023-05-06T22:18:23.748Z,25.95
2023-05-06T22:20:52.383Z,27.65
2023-05-06T22:23:21.766Z,26.15
2023-05-06T22:25:48.234Z,27.83
2023-05-06T22:28:14.716Z,28.95
2023-05-06T22:30:43.538Z,28.23
2023-05-06T22:33:10.032Z,26.70
2023-05-06T22:35:36.575Z,27.45
2023-05-06T22:38:03.067Z,29.20
2023-05-06T22:40:31.163Z,29.55
2023-05-06T22:42:57.648Z,28.17
2023-05-06T22:45:24.213Z,29.33
2023-05-06T22:47:50.877Z,28.38
2023-05-06T22:50:17.458Z,30.45
2023-05-06T22:52:49.726Z,31.48
2023-05-06T22:55:16.449Z,31.55
2023-05-06T22:57:43.014Z,32.95
2023-05-06T23:00:12.404Z,32.47
2023-05-06T23:02:39.160Z,29.55
2023-05-06T23:05:06.528Z,32.72
2023-05-06T23:07:33.051Z,32.63
2023-05-06T23:10:00.838Z,32.35
2023-05-06T23:12:31.450Z,32.58
2023-05-06T23:15:01.591Z,33.97
2023-05-06T23:17:28.099Z,33.47
2023-05-06T23:19:54.672Z,33.47
2023-05-06T23:22:21.179Z,32.95
2023-05-06T23:24:47.636Z,34.95
2023-05-06T23:27:14.115Z,35.65
2023-05-06T23:29:45.874Z,35.00
2023-05-06T23:32:12.349Z,34.60
2023-05-06T23:34:38.802Z,35.55
2023-05-06T23:37:05.355Z,35.88
2023-05-06T23:39:31.834Z,33.75
2023-05-06T23:42:00.615Z,37.92
2023-05-06T23:44:27.093Z,35.63
2023-05-06T23:46:53.710Z,37.05
2023-05-06T23:49:23.749Z,36.70
2023-05-06T23:51:50.295Z,36.55
2023-05-06T23:54:16.860Z,38.38
2023-05-06T23:56:43.348Z,36.88
2023-05-06T23:59:09.848Z,36.88
